createdAt,value
2022-08-03T00:01:29.259Z,101464.28
2022-08-03T00:03:56.792Z,101460.63
2022-08-03T00:06:23.869Z,101471.19
2022-08-03T00:08:50.977Z,101465.69
2022-08-03T00:11:18.209Z,101464.19
2022-08-03T00:13:45.275Z,101461.00
2022-08-03T00:16:13.297Z,101462.59
2022-08-03T00:18:40.890Z,101465.34
2022-08-03T00:21:08.166Z,101461.44
2022-08-03T00:23:51.199Z,101464.19
2022-08-03T00:26:21.377Z,101467.25
2022-08-03T00:28:49.547Z,101464.16
2022-08-03T00:31:16.675Z,101458.59
2022-08-03T00:33:58.877Z,101457.44
2022-08-03T00:36:27.551Z,101457.78
2022-08-03T00:38:55.903Z,101451.44
2022-08-03T00:41:23.246Z,101449.03
2022-08-03T00:43:50.426Z,101455.81
2022-08-03T00:46:21.299Z,101455.44
2022-08-03T00:48:50.258Z,101450.63
2022-08-03T00:51:19.029Z,101446.19
2022-08-03T00:53:46.387Z,101445.88
2022-08-03T00:56:15.348Z,101439.22
2022-08-03T00:58:44.855Z,101448.13
2022-08-03T01:01:12.881Z,101447.13
2022-08-03T01:03:40.968Z,101452.63
2022-08-03T01:06:34.218Z,101444.78
2022-08-03T01:09:03.958Z,101443.84
2022-08-03T01:12:01.271Z,101443.72
2022-08-03T01:14:39.202Z,101435.13
2022-08-03T01:17:09.055Z,101439.91
2022-08-03T01:20:02.702Z,101421.25
2022-08-03T01:22:38.513Z,101435.75
2022-08-03T01:25:40.358Z,101427.06
2022-08-03T01:28:13.200Z,101430.03
2022-08-03T01:30:45.379Z,101426.44
2022-08-03T01:33:28.447Z,101425.94
2022-08-03T01:36:02.540Z,101432.72
2022-08-03T01:38:33.994Z,101428.94
2022-08-03T01:41:06.169Z,101430.84
2022-08-03T01:44:27.211Z,101428.03
2022-08-03T01:46:25.345Z,101425.47
2022-08-03T01:48:55.214Z,101424.84
2022-08-03T01:51:23.807Z,101420.28
2022-08-03T01:54:11.880Z,101420.22
2022-08-03T01:56:42.712Z,101417.22
2022-08-03T01:59:12.663Z,101420.34
2022-08-03T02:02:27.811Z,101419.97
2022-08-03T02:04:29.594Z,101416.88
2022-08-03T02:07:02.189Z,101423.06
2022-08-03T02:09:31.671Z,101417.88
2022-08-03T02:11:59.124Z,101422.84
2022-08-03T02:14:28.068Z,101421.22
2022-08-03T02:16:56.021Z,101421.97
2022-08-03T02:19:25.277Z,101418.00
2022-08-03T02:21:57.023Z,101414.78
2022-08-03T02:24:29.991Z,101414.34
2022-08-03T02:26:59.006Z,101414.94
2022-08-03T02:29:39.761Z,101420.75
2022-08-03T02:32:16.405Z,101415.50
2022-08-03T02:34:47.350Z,101419.09
2022-08-03T02:37:18.012Z,101411.50
2022-08-03T02:39:48.166Z,101400.91
2022-08-03T02:42:17.249Z,101402.31
2022-08-03T02:44:48.720Z,101401.53
2022-08-03T02:47:20.936Z,101395.06
2022-08-03T02:49:52.169Z,101403.25
2022-08-03T02:52:26.044Z,101408.69
2022-08-03T02:54:56.756Z,101410.97
2022-08-03T02:57:26.538Z,101401.88
2022-08-03T02:59:55.482Z,101401.88
2022-08-03T03:02:24.355Z,101410.78
2022-08-03T03:05:52.665Z,101404.72
2022-08-03T03:07:51.999Z,101406.84
2022-08-03T03:10:24.531Z,101405.44
2022-08-03T03:12:55.963Z,101403.84
2022-08-03T03:15:24.505Z,101397.13
2022-08-03T03:17:53.597Z,101401.47
2022-08-03T03:20:29.144Z,101405.75
2022-08-03T03:23:00.808Z,101404.75
2022-08-03T03:25:34.892Z,101408.41
2022-08-03T03:28:02.575Z,101397.63
2022-08-03T03:30:30.671Z,101404.03
2022-08-03T03:32:58.895Z,101404.84
2022-08-03T03:35:27.470Z,101415.38
2022-08-03T03:37:54.965Z,101412.63
2022-08-03T03:40:22.648Z,101406.03
2022-08-03T03:42:50.244Z,101414.66
2022-08-03T03:45:18.753Z,101406.03
2022-08-03T03:47:46.846Z,101406.09
2022-08-03T03:50:16.089Z,101408.94
2022-08-03T03:52:43.244Z,101413.25
2022-08-03T03:55:10.378Z,101404.25
2022-08-03T03:57:37.404Z,101411.66
2022-08-03T04:00:05.377Z,101414.41
2022-08-03T04:02:33.542Z,101406.19
2022-08-03T04:05:18.848Z,101409.72
2022-08-03T04:08:14.985Z,101407.25
2022-08-03T04:11:01.480Z,101409.56
2022-08-03T04:13:35.281Z,101396.41
2022-08-03T04:16:07.048Z,101400.66
2022-08-03T04:18:35.410Z,101399.94
2022-08-03T04:21:06.515Z,101396.19
2022-08-03T04:23:36.959Z,101397.63
2022-08-03T04:26:09.562Z,101415.63
2022-08-03T04:28:39.067Z,101413.97
2022-08-03T04:31:09.609Z,101408.25
2022-08-03T04:33:38.972Z,101409.19
2022-08-03T04:36:10.909Z,101413.91
2022-08-03T04:39:01.728Z,101409.84
2022-08-03T04:41:30.408Z,101409.56
2022-08-03T04:44:00.511Z,101412.97
2022-08-03T04:46:31.374Z,101418.88
2022-08-03T04:48:59.527Z,101417.66
2022-08-03T04:51:26.779Z,101422.06
2022-08-03T04:53:53.887Z,101413.25
2022-08-03T04:56:21.070Z,101417.19
2022-08-03T04:58:48.200Z,101418.16
2022-08-03T05:01:16.535Z,101419.91
2022-08-03T05:03:43.557Z,101412.38
2022-08-03T05:06:11.315Z,101419.94
2022-08-03T05:08:46.182Z,101416.91
2022-08-03T05:11:16.097Z,101423.03
2022-08-03T05:13:44.476Z,101416.28
2022-08-03T05:16:12.020Z,101418.00
2022-08-03T05:18:39.219Z,101417.50
2022-08-03T05:21:06.359Z,101418.53
2022-08-03T05:23:33.526Z,101414.38
2022-08-03T05:26:00.548Z,101416.56
2022-08-03T05:28:27.859Z,101422.28
2022-08-03T05:30:55.098Z,101418.47
2022-08-03T05:33:22.413Z,101411.88
2022-08-03T05:35:57.397Z,101413.78
2022-08-03T05:38:36.663Z,101414.94
2022-08-03T05:41:22.615Z,101413.97
2022-08-03T05:43:55.284Z,101415.47
2022-08-03T05:46:22.972Z,101426.19
2022-08-03T05:48:51.059Z,101417.69
2022-08-03T05:51:18.108Z,101421.63
2022-08-03T05:53:45.329Z,101425.84
2022-08-03T05:56:15.361Z,101419.38
2022-08-03T05:58:44.866Z,101424.13
2022-08-03T06:01:12.372Z,101433.31
2022-08-03T06:03:40.101Z,101427.47
2022-08-03T06:06:07.318Z,101424.81
2022-08-03T06:08:34.860Z,101425.44
2022-08-03T06:11:01.913Z,101431.13
2022-08-03T06:13:29.989Z,101428.59
2022-08-03T06:15:57.431Z,101426.69
2022-08-03T06:18:24.809Z,101427.88
2022-08-03T06:20:52.720Z,101426.50
2022-08-03T06:23:20.371Z,101418.34
2022-08-03T06:25:47.556Z,101425.56
2022-08-03T06:31:02.376Z,101424.25
2022-08-03T06:33:48.517Z,101439.28
2022-08-03T06:36:17.151Z,101429.19
2022-08-03T06:38:44.220Z,101433.22
2022-08-03T06:41:11.252Z,101435.28
2022-08-03T06:44:03.429Z,101441.25
2022-08-03T06:46:25.991Z,101428.66
2022-08-03T06:48:53.280Z,101441.75
2022-08-03T06:51:20.739Z,101441.81
2022-08-03T06:54:08.485Z,101447.78
2022-08-03T06:56:36.665Z,101449.03
2022-08-03T06:59:03.799Z,101441.97
2022-08-03T07:01:30.915Z,101444.38
2022-08-03T07:03:57.992Z,101433.00
2022-08-03T07:06:25.192Z,101447.22
2022-08-03T07:08:56.472Z,101440.13
2022-08-03T07:11:26.632Z,101449.63
2022-08-03T07:13:53.662Z,101441.72
2022-08-03T07:16:20.732Z,101446.06
2022-08-03T07:18:47.792Z,101448.44
2022-08-03T07:21:16.658Z,101437.38
2022-08-03T07:23:43.717Z,101451.19
2022-08-03T07:26:12.002Z,101442.84
2022-08-03T07:28:39.129Z,101439.69
2022-08-03T07:31:09.585Z,101444.03
2022-08-03T07:33:36.975Z,101443.22
2022-08-03T07:36:06.315Z,101444.75
2022-08-03T07:38:35.692Z,101451.84
2022-08-03T07:41:03.260Z,101441.94
2022-08-03T07:43:30.373Z,101441.47
2022-08-03T07:45:57.576Z,101440.63
2022-08-03T07:48:24.758Z,101435.84
2022-08-03T07:50:53.126Z,101442.91
2022-08-03T07:53:20.226Z,101447.16
2022-08-03T07:55:47.707Z,101436.81
2022-08-03T07:58:21.952Z,101443.44
2022-08-03T08:00:53.230Z,101434.72
2022-08-03T08:03:21.917Z,101438.25
2022-08-03T08:05:49.424Z,101438.88
2022-08-03T08:08:16.811Z,101438.72
2022-08-03T08:10:58.177Z,101443.34
2022-08-03T08:13:25.642Z,101439.28
2022-08-03T08:15:52.808Z,101440.41
2022-08-03T08:18:19.856Z,101425.38
2022-08-03T08:20:47.351Z,101436.81
2022-08-03T08:23:37.745Z,101427.72
2022-08-03T08:26:02.364Z,101430.81
2022-08-03T08:28:33.543Z,101441.28
2022-08-03T08:31:01.839Z,101429.53
2022-08-03T08:33:42.033Z,101439.78
2022-08-03T08:36:16.090Z,101437.44
2022-08-03T08:38:44.990Z,101427.88
2022-08-03T08:41:13.837Z,101425.13
2022-08-03T08:43:42.360Z,101432.94
2022-08-03T08:46:23.371Z,101428.25
2022-08-03T08:48:52.519Z,101435.25
2022-08-03T08:51:21.822Z,101435.47
2022-08-03T08:53:53.812Z,101431.47
2022-08-03T08:56:25.370Z,101436.13
2022-08-03T08:58:56.928Z,101435.44
2022-08-03T09:01:23.993Z,101429.97
2022-08-03T09:03:51.978Z,101422.06
2022-08-03T09:06:19.331Z,101435.91
2022-08-03T09:08:46.385Z,101426.56
2022-08-03T09:11:13.418Z,101430.47
2022-08-03T09:13:40.486Z,101422.44
2022-08-03T09:16:21.376Z,101430.78
2022-08-03T09:18:53.425Z,101430.25
2022-08-03T09:21:33.513Z,101429.13
2022-08-03T09:24:05.341Z,101426.28
2022-08-03T09:26:37.545Z,101430.06
2022-08-03T09:29:07.149Z,101416.88
2022-08-03T09:31:43.138Z,101420.94
2022-08-03T09:34:16.102Z,101428.44
2022-08-03T09:36:50.800Z,101422.19
2022-08-03T09:39:40.592Z,101428.41
2022-08-03T09:42:14.694Z,101422.50
2022-08-03T09:44:45.849Z,101418.47
2022-08-03T09:47:17.695Z,101419.78
2022-08-03T09:50:07.239Z,101424.63
2022-08-03T09:52:49.641Z,101422.22
2022-08-03T09:55:23.842Z,101414.50
2022-08-03T09:58:11.099Z,101404.16
2022-08-03T10:01:08.293Z,101406.31
2022-08-03T10:04:04.041Z,101417.63
2022-08-03T10:06:32.059Z,101410.09
2022-08-03T10:09:25.110Z,101410.63
2022-08-03T10:11:52.625Z,101412.91
2022-08-03T10:14:20.377Z,101404.47
2022-08-03T10:16:48.662Z,101395.56
2022-08-03T10:19:16.571Z,101396.28
2022-08-03T10:21:57.886Z,101397.88
2022-08-03T10:24:27.369Z,101395.75
2022-08-03T10:27:02.912Z,101388.63
2022-08-03T10:29:38.370Z,101394.09
2022-08-03T10:32:14.692Z,101395.13
2022-08-03T10:34:44.690Z,101377.09
2022-08-03T10:37:16.067Z,101382.78
2022-08-03T10:39:53.600Z,101388.63
2022-08-03T10:42:23.990Z,101382.00
2022-08-03T10:45:06.846Z,101388.00
2022-08-03T10:47:35.679Z,101385.44
2022-08-03T10:50:04.098Z,101385.69
2022-08-03T10:52:32.910Z,101378.00
2022-08-03T10:55:41.640Z,101381.31
2022-08-03T10:58:11.209Z,101380.88
2022-08-03T11:00:50.614Z,101374.88
2022-08-03T11:03:18.558Z,101378.00
2022-08-03T11:05:49.111Z,101378.78
2022-08-03T11:08:21.935Z,101379.44
2022-08-03T11:10:50.658Z,101385.28
2022-08-03T11:13:21.738Z,101386.81
2022-08-03T11:15:51.222Z,101376.88
2022-08-03T11:18:18.495Z,101375.19
2022-08-03T11:20:53.083Z,101376.22
2022-08-03T11:24:05.307Z,101360.13
2022-08-03T11:26:29.162Z,101371.09
2022-08-03T11:29:29.381Z,101362.47
2022-08-03T11:31:56.611Z,101363.53
2022-08-03T11:34:24.820Z,101361.41
2022-08-03T11:37:30.189Z,101361.53
2022-08-03T11:40:02.843Z,101364.03
2022-08-03T11:42:36.578Z,101361.09
2022-08-03T11:45:07.745Z,101359.84
2022-08-03T11:47:50.589Z,101359.66
2022-08-03T11:50:19.960Z,101361.41
2022-08-03T11:52:48.182Z,101357.63
2022-08-03T11:55:22.170Z,101355.78
2022-08-03T11:59:15.256Z,101359.94
2022-08-03T12:00:36.748Z,101350.28
2022-08-03T12:03:10.033Z,101348.25
2022-08-03T12:05:51.137Z,101341.03
2022-08-03T12:08:27.930Z,101350.50
2022-08-03T12:10:57.030Z,101357.59
2022-08-03T12:14:10.661Z,101343.19
2022-08-03T12:16:24.632Z,101345.25
2022-08-03T12:19:13.362Z,101349.59
2022-08-03T12:21:57.139Z,101334.66
2022-08-03T12:24:24.850Z,101338.16
2022-08-03T12:34:07.997Z,101338.59
2022-08-03T12:36:36.272Z,101328.50
2022-08-03T12:39:08.881Z,101324.41
2022-08-03T12:41:38.481Z,101328.28
2022-08-03T12:44:07.712Z,101326.91
2022-08-03T12:46:43.975Z,101317.88
2022-08-03T12:49:17.415Z,101333.22
2022-08-03T12:51:44.336Z,101319.47
2022-08-03T12:54:24.842Z,101318.13
2022-08-03T12:57:06.637Z,101316.84
2022-08-03T12:59:40.619Z,101321.41
2022-08-03T13:02:25.050Z,101316.59
2022-08-03T13:04:53.892Z,101314.75
2022-08-03T13:07:22.309Z,101324.25
2022-08-03T13:09:55.526Z,101318.94
2022-08-03T13:12:23.960Z,101313.19
2022-08-03T13:14:56.747Z,101322.91
2022-08-03T13:17:24.657Z,101310.28
2022-08-03T13:19:52.332Z,101313.84
2022-08-03T13:22:33.050Z,101309.06
2022-08-03T13:25:01.520Z,101304.88
2022-08-03T13:28:09.919Z,101304.81
2022-08-03T13:30:27.565Z,101303.16
2022-08-03T13:33:03.890Z,101308.75
2022-08-03T13:35:30.981Z,101315.31
2022-08-03T13:37:58.065Z,101298.47
2022-08-03T13:40:30.310Z,101310.00
2022-08-03T13:42:58.914Z,101306.75
2022-08-03T13:45:27.533Z,101298.84
2022-08-03T13:47:54.818Z,101286.47
2022-08-03T13:50:21.847Z,101292.41
2022-08-03T13:52:48.881Z,101296.44
2022-08-03T13:55:15.943Z,101294.72
2022-08-03T13:58:02.774Z,101289.34
2022-08-03T14:00:30.136Z,101289.66
2022-08-03T14:03:05.193Z,101288.63
2022-08-03T14:05:38.427Z,101282.78
2022-08-03T14:08:06.870Z,101282.06
2022-08-03T14:10:38.999Z,101286.94
2022-08-03T14:13:06.388Z,101288.28
2022-08-03T14:15:37.634Z,101272.63
2022-08-03T14:18:07.263Z,101280.47
2022-08-03T14:20:47.855Z,101272.63
2022-08-03T14:23:17.985Z,101282.66
2022-08-03T14:25:51.722Z,101282.03
2022-08-03T14:28:22.965Z,101274.69
2022-08-03T14:30:51.877Z,101267.78
2022-08-03T14:33:19.261Z,101275.28
2022-08-03T14:35:46.541Z,101280.50
2022-08-03T14:38:14.109Z,101284.31
2022-08-03T14:40:41.510Z,101271.50
2022-08-03T14:43:08.640Z,101276.97
2022-08-03T14:45:35.935Z,101274.41
2022-08-03T14:50:30.491Z,101273.66
2022-08-03T14:50:53.186Z,101267.19
2022-08-03T14:53:20.811Z,101264.34
2022-08-03T14:55:50.618Z,101267.44
2022-08-03T14:58:21.517Z,101257.44
2022-08-03T15:00:50.147Z,101260.00
2022-08-03T15:03:20.738Z,101257.16
2022-08-03T15:05:47.805Z,101264.88
2022-08-03T15:08:15.029Z,101259.16
2022-08-03T15:10:45.209Z,101251.19
2022-08-03T15:13:13.489Z,101262.81
2022-08-03T15:15:41.144Z,101275.09
2022-08-03T15:18:08.833Z,101255.34
2022-08-03T15:20:45.315Z,101263.31
2022-08-03T15:23:14.862Z,101269.25
2022-08-03T15:26:03.999Z,101260.66
2022-08-03T15:28:30.659Z,101263.34
2022-08-03T15:30:57.863Z,101257.50
2022-08-03T15:33:25.222Z,101258.84
2022-08-03T15:35:53.193Z,101256.94
2022-08-03T15:38:25.738Z,101255.94
2022-08-03T15:40:54.749Z,101259.66
2022-08-03T15:43:23.254Z,101246.81
2022-08-03T15:46:12.873Z,101253.75
2022-08-03T15:48:37.840Z,101249.31
2022-08-03T15:51:07.814Z,101255.88
2022-08-03T15:53:35.112Z,101249.06
2022-08-03T15:56:08.036Z,101255.75
2022-08-03T15:59:10.239Z,101243.66
2022-08-03T16:01:26.213Z,101253.31
2022-08-03T16:03:53.316Z,101254.84
2022-08-03T16:06:35.570Z,101250.47
2022-08-03T16:09:05.842Z,101257.88
2022-08-03T16:11:52.864Z,101257.53
2022-08-03T16:14:32.434Z,101252.47
2022-08-03T16:17:07.569Z,101257.75
2022-08-03T16:19:35.703Z,101246.91
2022-08-03T16:22:03.167Z,101252.19
2022-08-03T16:24:30.635Z,101246.97
2022-08-03T16:26:57.692Z,101248.78
2022-08-03T16:29:28.329Z,101245.44
2022-08-03T16:31:55.449Z,101256.53
2022-08-03T16:34:22.621Z,101248.56
2022-08-03T16:36:50.413Z,101242.50
2022-08-03T16:39:17.529Z,101248.63
2022-08-03T16:42:00.315Z,101245.72
2022-08-03T16:44:32.101Z,101238.16
2022-08-03T16:47:00.358Z,101251.88
2022-08-03T16:49:54.467Z,101244.94
2022-08-03T16:52:16.479Z,101237.09
2022-08-03T16:54:53.175Z,101246.47
2022-08-03T16:57:56.323Z,101252.78
2022-08-03T17:00:10.895Z,101254.50
2022-08-03T17:02:40.910Z,101248.28
2022-08-03T17:05:15.765Z,101245.53
2022-08-03T17:07:46.823Z,101259.84
2022-08-03T17:10:22.032Z,101258.41
2022-08-03T17:12:54.511Z,101260.94
2022-08-03T17:15:38.471Z,101262.97
2022-08-03T17:18:13.948Z,101267.47
2022-08-03T17:20:42.709Z,101257.66
2022-08-03T17:23:41.793Z,101257.59
2022-08-03T17:26:21.164Z,101259.06
2022-08-03T17:28:57.969Z,101253.84
2022-08-03T17:31:31.518Z,101265.97
2022-08-03T17:34:01.605Z,101269.78
2022-08-03T17:36:53.941Z,101267.69
2022-08-03T17:39:30.852Z,101272.06
2022-08-03T17:42:30.597Z,101266.06
2022-08-03T17:44:57.288Z,101269.78
2022-08-03T17:47:29.225Z,101265.78
2022-08-03T17:50:24.779Z,101267.84
2022-08-03T17:53:24.174Z,101269.06
2022-08-03T17:56:42.385Z,101269.69
2022-08-03T17:59:52.265Z,101270.94
2022-08-03T18:02:49.488Z,101279.31
2022-08-03T18:05:21.899Z,101280.97
2022-08-03T18:07:59.192Z,101280.09
2022-08-03T18:10:49.695Z,101277.28
2022-08-03T18:13:25.130Z,101276.81
2022-08-03T18:16:07.255Z,101285.63
2022-08-03T18:18:43.209Z,101288.03
2022-08-03T18:23:59.624Z,101279.78
2022-08-03T18:26:27.776Z,101285.66
2022-08-03T18:28:55.206Z,101289.53
2022-08-03T18:31:59.753Z,101296.25
2022-08-03T18:34:19.597Z,101294.81
2022-08-03T18:37:04.406Z,101289.13
2022-08-03T18:39:39.091Z,101291.94
2022-08-03T18:42:19.344Z,101287.78
2022-08-03T18:44:54.136Z,101300.06
2022-08-03T18:47:50.740Z,101289.94
2022-08-03T18:50:30.506Z,101296.59
2022-08-03T18:54:03.470Z,101306.75
2022-08-03T18:56:42.820Z,101300.81
2022-08-03T18:59:30.146Z,101306.28
2022-08-03T19:02:05.719Z,101309.31
2022-08-03T19:04:41.967Z,101306.66
2022-08-03T19:07:17.369Z,101310.72
2022-08-03T19:09:57.517Z,101312.56
2022-08-03T19:12:39.465Z,101321.97
2022-08-03T19:15:10.590Z,101318.25
2022-08-03T19:17:50.306Z,101318.88
2022-08-03T19:20:25.968Z,101318.59
2022-08-03T19:22:56.068Z,101315.19
2022-08-03T19:25:34.433Z,101316.53
2022-08-03T19:28:05.877Z,101323.63
2022-08-03T19:30:53.322Z,101323.81
2022-08-03T19:33:22.619Z,101313.00
2022-08-03T19:35:55.672Z,101319.34
2022-08-03T19:38:28.739Z,101320.28
2022-08-03T19:41:17.703Z,101321.13
2022-08-03T19:43:57.997Z,101319.19
2022-08-03T19:46:30.865Z,101316.56
2022-08-03T19:49:14.435Z,101319.28
2022-08-03T19:51:59.034Z,101320.06
2022-08-03T19:54:45.804Z,101319.63
2022-08-03T19:57:27.470Z,101324.03
2022-08-03T19:59:56.181Z,101327.72
2022-08-03T20:02:26.497Z,101325.94
2022-08-03T20:04:59.819Z,101334.28
2022-08-03T20:07:29.497Z,101325.09
2022-08-03T20:09:59.710Z,101328.22
2022-08-03T20:12:29.679Z,101325.91
2022-08-03T20:14:58.124Z,101316.19
2022-08-03T20:17:54.701Z,101327.41
2022-08-03T20:20:13.887Z,101332.88
2022-08-03T20:22:46.061Z,101333.44
2022-08-03T20:25:20.748Z,101331.59
2022-08-03T20:28:07.709Z,101333.38
2022-08-03T20:30:47.225Z,101335.09
2022-08-03T20:33:27.828Z,101332.50
2022-08-03T20:36:12.833Z,101332.63
2022-08-03T20:38:43.682Z,101339.03
2022-08-03T20:41:15.027Z,101347.81
2022-08-03T20:43:42.377Z,101339.31
2022-08-03T20:46:32.745Z,101343.75
2022-08-03T20:48:58.846Z,101338.38
2022-08-03T20:51:48.913Z,101347.13
2022-08-03T20:54:22.696Z,101337.03
2022-08-03T20:56:58.105Z,101346.19
2022-08-03T20:59:36.943Z,101341.97
2022-08-03T21:02:19.679Z,101345.84
2022-08-03T21:05:02.915Z,101339.53
2022-08-03T21:08:04.547Z,101347.16
2022-08-03T21:10:31.123Z,101347.19
2022-08-03T21:12:57.780Z,101285.09
2022-08-03T21:13:16.818Z,101345.25
2022-08-03T21:16:04.797Z,101344.81
2022-08-03T21:18:45.258Z,101345.63
2022-08-03T21:21:15.893Z,101341.41
2022-08-03T21:23:48.790Z,101335.09
2022-08-03T21:26:22.080Z,101343.81
2022-08-03T21:28:50.816Z,101335.53
2022-08-03T21:31:24.767Z,101337.59
2022-08-03T21:33:55.758Z,101344.75
2022-08-03T21:36:23.566Z,101331.38
2022-08-03T21:38:56.442Z,101332.97
2022-08-03T21:41:28.176Z,101333.78
2022-08-03T21:43:55.452Z,101332.63
2022-08-03T21:46:23.509Z,101332.19
2022-08-03T21:50:06.039Z,101331.38
2022-08-03T21:51:51.521Z,101333.00
2022-08-03T21:54:20.828Z,101330.22
2022-08-03T21:56:51.011Z,101338.09
2022-08-03T21:59:19.858Z,101341.25
2022-08-03T22:01:49.140Z,101340.97
2022-08-03T22:04:50.086Z,101335.84
2022-08-03T22:07:08.755Z,101345.78
2022-08-03T22:09:36.662Z,101346.91
2022-08-03T22:12:04.304Z,101346.19
2022-08-03T22:14:34.665Z,101342.44
2022-08-03T22:17:03.483Z,101340.16
2022-08-03T22:19:33.623Z,101346.22
2022-08-03T22:22:04.642Z,101345.09
2022-08-03T22:24:32.810Z,101344.69
2022-08-03T22:27:20.840Z,101360.47
2022-08-03T22:29:49.749Z,101362.84
2022-08-03T22:32:16.890Z,101357.28
2022-08-03T22:34:46.279Z,101352.53
2022-08-03T22:37:19.240Z,101353.31
2022-08-03T22:39:47.313Z,101345.84
2022-08-03T22:42:14.495Z,101353.28
2022-08-03T22:44:41.701Z,101358.81
2022-08-03T22:47:09.665Z,101352.53
2022-08-03T22:49:38.078Z,101357.66
2022-08-03T22:52:07.745Z,101342.69
2022-08-03T22:54:35.546Z,101355.97
2022-08-03T22:57:04.656Z,101359.91
2022-08-03T22:59:40.496Z,101359.47
2022-08-03T23:02:21.369Z,101354.72
2022-08-03T23:05:01.470Z,101359.75
2022-08-03T23:07:32.795Z,101356.63
2022-08-03T23:10:01.233Z,101358.50
2022-08-03T23:12:30.547Z,101352.63
2022-08-03T23:15:01.204Z,101351.44
2022-08-03T23:17:30.999Z,101359.34
2022-08-03T23:20:16.909Z,101360.91
2022-08-03T23:22:44.618Z,101350.63
2022-08-03T23:25:15.514Z,101345.47
2022-08-03T23:27:48.305Z,101348.25
2022-08-03T23:30:31.791Z,101354.53
2022-08-03T23:33:01.243Z,101356.97
2022-08-03T23:36:28.529Z,101354.59
2022-08-03T23:38:37.109Z,101338.72
2022-08-03T23:41:08.017Z,101337.97
2022-08-03T23:43:52.449Z,101337.91
2022-08-03T23:46:25.109Z,101346.56
2022-08-03T23:48:52.163Z,101338.16
2022-08-03T23:51:29.717Z,101343.34
2022-08-03T23:54:50.416Z,101342.94
2022-08-03T23:57:25.532Z,101344.63
